Aviation Digital Data Service (ADDS)

Output produced by METARs form (2327 UTC 20 January 2019)
found at http://www.aviationweather.gov/metar/data/
 
METAR text: OEMA 202300Z 34003KT 4000 DU SKC 16/M01 Q1017 NOSIG
Conditions at: OEMA (MADINAH INTL ARP, SA) observed 2300 UTC 20 January 2019
Temperature: 16.0°C (61°F)
Dewpoint: -1.0°C (30°F) [RH = 31%]
Pressure (altimeter): 30.03 inches Hg (1017.0 mb)
Winds: from the NNW (340 degrees) at 3 MPH (3 knots; 1.5 m/s)
Visibility: 2.49 miles (4.01 km)
Ceiling: at least 12,000 feet AGL
Clouds: clear skies
Weather: DU  (widespread dust)

METAR text: OEMA 202200Z 04005KT 4000 DU SKC 17/M01 Q1018 NOSIG
Conditions at: OEMA (MADINAH INTL ARP, SA) observed 2200 UTC 20 January 2019
Temperature: 17.0°C (63°F)
Dewpoint: -1.0°C (30°F) [RH = 29%]
Pressure (altimeter): 30.06 inches Hg (1018.0 mb)
Winds: from the NE (40 degrees) at 6 MPH (5 knots; 2.6 m/s)
Visibility: 2.49 miles (4.01 km)
Ceiling: at least 12,000 feet AGL
Clouds: clear skies
Weather: DU  (widespread dust)

METAR text: OEMA 202100Z 36004KT 4000 DU SKC 17/M01 Q1018 NOSIG
Conditions at: OEMA (MADINAH INTL ARP, SA) observed 2100 UTC 20 January 2019
Temperature: 17.0°C (63°F)
Dewpoint: -1.0°C (30°F) [RH = 29%]
Pressure (altimeter): 30.06 inches Hg (1018.0 mb)
Winds: from the N (360 degrees) at 5 MPH (4 knots; 2.1 m/s)
Visibility: 2.49 miles (4.01 km)
Ceiling: at least 12,000 feet AGL
Clouds: clear skies
Weather: DU  (widespread dust)

METAR text: OEMA 202000Z 00000KT 4000 DU SKC 18/M01 Q1018 NOSIG
Conditions at: OEMA (MADINAH INTL ARP, SA) observed 2000 UTC 20 January 2019
Temperature: 18.0°C (64°F)
Dewpoint: -1.0°C (30°F) [RH = 28%]
Pressure (altimeter): 30.06 inches Hg (1018.0 mb)
Winds: calm
Visibility: 2.49 miles (4.01 km)
Ceiling: at least 12,000 feet AGL
Clouds: clear skies
Weather: DU  (widespread dust)

METAR text: OEMA 201900Z 35005KT 4000 DU SKC 18/M01 Q1018 NOSIG
Conditions at: OEMA (MADINAH INTL ARP, SA) observed 1900 UTC 20 January 2019
Temperature: 18.0°C (64°F)
Dewpoint: -1.0°C (30°F) [RH = 28%]
Pressure (altimeter): 30.06 inches Hg (1018.0 mb)
Winds: from the N (350 degrees) at 6 MPH (5 knots; 2.6 m/s)
Visibility: 2.49 miles (4.01 km)
Ceiling: at least 12,000 feet AGL
Clouds: clear skies
Weather: DU  (widespread dust)

METAR text: OEMA 201800Z 36002KT 2000 DU NSC 20/M02 Q1017 NOSIG
Conditions at: OEMA (MADINAH INTL ARP, SA) observed 1800 UTC 20 January 2019
Temperature: 20.0°C (68°F)
Dewpoint: -2.0°C (28°F) [RH = 23%]
Pressure (altimeter): 30.03 inches Hg (1017.0 mb)
Winds: from the N (360 degrees) at 2 MPH (2 knots; 1.0 m/s)
Visibility: 1.24 miles (2.00 km)
Ceiling: at least 12,000 feet AGL
Clouds: sky clear below 12,000 feet AGL
Weather: DU  (widespread dust)

METAR text: OEMA 201700Z 12004KT 2000 DU NSC 22/M03 Q1017 NOSIG
Conditions at: OEMA (MADINAH INTL ARP, SA) observed 1700 UTC 20 January 2019
Temperature: 22.0°C (72°F)
Dewpoint: -3.0°C (27°F) [RH = 19%]
Pressure (altimeter): 30.03 inches Hg (1017.0 mb)
Winds: from the ESE (120 degrees) at 5 MPH (4 knots; 2.1 m/s)
Visibility: 1.24 miles (2.00 km)
Ceiling: at least 12,000 feet AGL
Clouds: sky clear below 12,000 feet AGL
Weather: DU  (widespread dust)

METAR text: OEMA 201600Z 00000KT 2500 DU NSC 22/M03 Q1017 NOSIG
Conditions at: OEMA (MADINAH INTL ARP, SA) observed 1600 UTC 20 January 2019
Temperature: 22.0°C (72°F)
Dewpoint: -3.0°C (27°F) [RH = 19%]
Pressure (altimeter): 30.03 inches Hg (1017.0 mb)
Winds: calm
Visibility: 1.55 miles (2.49 km)
Ceiling: at least 12,000 feet AGL
Clouds: sky clear below 12,000 feet AGL
Weather: DU  (widespread dust)

METAR text: OEMA 201500Z 08002KT 2000 DU NSC 23/M04 Q1016 NOSIG
Conditions at: OEMA (MADINAH INTL ARP, SA) observed 1500 UTC 20 January 2019
Temperature: 23.0°C (73°F)
Dewpoint: -4.0°C (25°F) [RH = 16%]
Pressure (altimeter): 30.00 inches Hg (1016.0 mb)
Winds: from the E (80 degrees) at 2 MPH (2 knots; 1.0 m/s)
Visibility: 1.24 miles (2.00 km)
Ceiling: at least 12,000 feet AGL
Clouds: sky clear below 12,000 feet AGL
Weather: DU  (widespread dust)

METAR text: OEMA 201400Z 05002KT 2500 DU NSC 24/M02 Q1016 NOSIG
Conditions at: OEMA (MADINAH INTL ARP, SA) observed 1400 UTC 20 January 2019
Temperature: 24.0°C (75°F)
Dewpoint: -2.0°C (28°F) [RH = 18%]
Pressure (altimeter): 30.00 inches Hg (1016.0 mb)
Winds: from the NE (50 degrees) at 2 MPH (2 knots; 1.0 m/s)
Visibility: 1.55 miles (2.49 km)
Ceiling: at least 12,000 feet AGL
Clouds: sky clear below 12,000 feet AGL
Weather: DU  (widespread dust)

METAR text: OEMA 201300Z 12002KT 2000 DU SKC 23/M04 Q1016 NOSIG
Conditions at: OEMA (MADINAH INTL ARP, SA) observed 1300 UTC 20 January 2019
Temperature: 23.0°C (73°F)
Dewpoint: -4.0°C (25°F) [RH = 16%]
Pressure (altimeter): 30.00 inches Hg (1016.0 mb)
Winds: from the ESE (120 degrees) at 2 MPH (2 knots; 1.0 m/s)
Visibility: 1.24 miles (2.00 km)
Ceiling: at least 12,000 feet AGL
Clouds: clear skies
Weather: DU  (widespread dust)

METAR text: OEMA 201200Z 13004KT 2000 DU NSC 23/M05 Q1017 NOSIG
Conditions at: OEMA (MADINAH INTL ARP, SA) observed 1200 UTC 20 January 2019
Temperature: 23.0°C (73°F)
Dewpoint: -5.0°C (23°F) [RH = 15%]
Pressure (altimeter): 30.03 inches Hg (1017.0 mb)
Winds: from the SE (130 degrees) at 5 MPH (4 knots; 2.1 m/s)
Visibility: 1.24 miles (2.00 km)
Ceiling: at least 12,000 feet AGL
Clouds: sky clear below 12,000 feet AGL
Weather: DU  (widespread dust)

METAR text: OEMA 201100Z 18003KT 2000 DU SKC 22/M07 Q1017 NOSIG
Conditions at: OEMA (MADINAH INTL ARP, SA) observed 1100 UTC 20 January 2019
Temperature: 22.0°C (72°F)
Dewpoint: -7.0°C (19°F) [RH = 14%]
Pressure (altimeter): 30.03 inches Hg (1017.0 mb)
Winds: from the S (180 degrees) at 3 MPH (3 knots; 1.5 m/s)
Visibility: 1.24 miles (2.00 km)
Ceiling: at least 12,000 feet AGL
Clouds: clear skies
Weather: DU  (widespread dust)

METAR text: OEMA 201000Z 10004KT 1900 DU SKC 21/M05 Q1018 NOSIG
Conditions at: OEMA (MADINAH INTL ARP, SA) observed 1000 UTC 20 January 2019
Temperature: 21.0°C (70°F)
Dewpoint: -5.0°C (23°F) [RH = 17%]
Pressure (altimeter): 30.06 inches Hg (1018.0 mb)
Winds: from the E (100 degrees) at 5 MPH (4 knots; 2.1 m/s)
Visibility: 1.18 miles (1.90 km)
Ceiling: at least 12,000 feet AGL
Clouds: clear skies
Weather: DU  (widespread dust)

METAR text: OEMA 200900Z 11005KT 2000 DU SKC 19/M06 Q1020 NOSIG
Conditions at: OEMA (MADINAH INTL ARP, SA) observed 0900 UTC 20 January 2019
Temperature: 19.0°C (66°F)
Dewpoint: -6.0°C (21°F) [RH = 18%]
Pressure (altimeter): 30.12 inches Hg (1020.0 mb)
Winds: from the ESE (110 degrees) at 6 MPH (5 knots; 2.6 m/s)
Visibility: 1.24 miles (2.00 km)
Ceiling: at least 12,000 feet AGL
Clouds: clear skies
Weather: DU  (widespread dust)

METAR text: OEMA 200800Z 04006KT 2700 DU SKC 17/M06 Q1021 NOSIG
Conditions at: OEMA (MADINAH INTL ARP, SA) observed 0800 UTC 20 January 2019
Temperature: 17.0°C (63°F)
Dewpoint: -6.0°C (21°F) [RH = 20%]
Pressure (altimeter): 30.15 inches Hg (1021.0 mb)
Winds: from the NE (40 degrees) at 7 MPH (6 knots; 3.1 m/s)
Visibility: 1.68 miles (2.70 km)
Ceiling: at least 12,000 feet AGL
Clouds: clear skies
Weather: DU  (widespread dust)

METAR text: OEMA 200700Z 07007KT 2800 DU SKC 16/M05 Q1021 NOSIG
Conditions at: OEMA (MADINAH INTL ARP, SA) observed 0700 UTC 20 January 2019
Temperature: 16.0°C (61°F)
Dewpoint: -5.0°C (23°F) [RH = 23%]
Pressure (altimeter): 30.15 inches Hg (1021.0 mb)
Winds: from the ENE (70 degrees) at 8 MPH (7 knots; 3.6 m/s)
Visibility: 1.74 miles (2.80 km)
Ceiling: at least 12,000 feet AGL
Clouds: clear skies
Weather: DU  (widespread dust)

METAR text: OEMA 200600Z 06009KT 3000 DU SKC 14/M05 Q1021 NOSIG
Conditions at: OEMA (MADINAH INTL ARP, SA) observed 0600 UTC 20 January 2019
Temperature: 14.0°C (57°F)
Dewpoint: -5.0°C (23°F) [RH = 26%]
Pressure (altimeter): 30.15 inches Hg (1021.0 mb)
Winds: from the ENE (60 degrees) at 10 MPH (9 knots; 4.6 m/s)
Visibility: 1.86 miles (2.99 km)
Ceiling: at least 12,000 feet AGL
Clouds: clear skies
Weather: DU  (widespread dust)

METAR text: OEMA 200500Z 05005KT 3000 DU SKC 13/M05 Q1020 NOSIG
Conditions at: OEMA (MADINAH INTL ARP, SA) observed 0500 UTC 20 January 2019
Temperature: 13.0°C (55°F)
Dewpoint: -5.0°C (23°F) [RH = 28%]
Pressure (altimeter): 30.12 inches Hg (1020.0 mb)
Winds: from the NE (50 degrees) at 6 MPH (5 knots; 2.6 m/s)
Visibility: 1.86 miles (2.99 km)
Ceiling: at least 12,000 feet AGL
Clouds: clear skies
Weather: DU  (widespread dust)

METAR text: OEMA 200400Z 05006KT 3000 DU SKC 13/M05 Q1020 NOSIG
Conditions at: OEMA (MADINAH INTL ARP, SA) observed 0400 UTC 20 January 2019
Temperature: 13.0°C (55°F)
Dewpoint: -5.0°C (23°F) [RH = 28%]
Pressure (altimeter): 30.12 inches Hg (1020.0 mb)
Winds: from the NE (50 degrees) at 7 MPH (6 knots; 3.1 m/s)
Visibility: 1.86 miles (2.99 km)
Ceiling: at least 12,000 feet AGL
Clouds: clear skies
Weather: DU  (widespread dust)

METAR text: OEMA 200300Z 03006KT 3000 DU SKC 14/M05 Q1019 NOSIG
Conditions at: OEMA (MADINAH INTL ARP, SA) observed 0300 UTC 20 January 2019
Temperature: 14.0°C (57°F)
Dewpoint: -5.0°C (23°F) [RH = 26%]
Pressure (altimeter): 30.09 inches Hg (1019.0 mb)
Winds: from the NNE (30 degrees) at 7 MPH (6 knots; 3.1 m/s)
Visibility: 1.86 miles (2.99 km)
Ceiling: at least 12,000 feet AGL
Clouds: clear skies
Weather: DU  (widespread dust)

METAR text: OEMA 200200Z 04007KT 3000 DU NSC 14/M05 Q1019 NOSIG
Conditions at: OEMA (MADINAH INTL ARP, SA) observed 0200 UTC 20 January 2019
Temperature: 14.0°C (57°F)
Dewpoint: -5.0°C (23°F) [RH = 26%]
Pressure (altimeter): 30.09 inches Hg (1019.0 mb)
Winds: from the NE (40 degrees) at 8 MPH (7 knots; 3.6 m/s)
Visibility: 1.86 miles (2.99 km)
Ceiling: at least 12,000 feet AGL
Clouds: sky clear below 12,000 feet AGL
Weather: DU  (widespread dust)

METAR text: OEMA 200100Z 04007KT 3000 DU NSC 14/M05 Q1019 NOSIG
Conditions at: OEMA (MADINAH INTL ARP, SA) observed 0100 UTC 20 January 2019
Temperature: 14.0°C (57°F)
Dewpoint: -5.0°C (23°F) [RH = 26%]
Pressure (altimeter): 30.09 inches Hg (1019.0 mb)
Winds: from the NE (40 degrees) at 8 MPH (7 knots; 3.6 m/s)
Visibility: 1.86 miles (2.99 km)
Ceiling: at least 12,000 feet AGL
Clouds: sky clear below 12,000 feet AGL
Weather: DU  (widespread dust)

METAR text: OEMA 200000Z 04005KT 2500 DU SKC 15/M06 Q1019 NOSIG
Conditions at: OEMA (MADINAH INTL ARP, SA) observed 0000 UTC 20 January 2019
Temperature: 15.0°C (59°F)
Dewpoint: -6.0°C (21°F) [RH = 23%]
Pressure (altimeter): 30.09 inches Hg (1019.0 mb)
Winds: from the NE (40 degrees) at 6 MPH (5 knots; 2.6 m/s)
Visibility: 1.55 miles (2.49 km)
Ceiling: at least 12,000 feet AGL
Clouds: clear skies
Weather: DU  (widespread dust)

METAR text: OEMA 192300Z 05005KT 2000 DU SKC 16/M05 Q1019 NOSIG
Conditions at: OEMA (MADINAH INTL ARP, SA) observed 2300 UTC 19 January 2019
Temperature: 16.0°C (61°F)
Dewpoint: -5.0°C (23°F) [RH = 23%]
Pressure (altimeter): 30.09 inches Hg (1019.0 mb)
Winds: from the NE (50 degrees) at 6 MPH (5 knots; 2.6 m/s)
Visibility: 1.24 miles (2.00 km)
Ceiling: at least 12,000 feet AGL
Clouds: clear skies
Weather: DU  (widespread dust)

METAR text: OEMA 192200Z 04003KT 2000 DU SKC 17/M05 Q1020 NOSIG
Conditions at: OEMA (MADINAH INTL ARP, SA) observed 2200 UTC 19 January 2019
Temperature: 17.0°C (63°F)
Dewpoint: -5.0°C (23°F) [RH = 22%]
Pressure (altimeter): 30.12 inches Hg (1020.0 mb)
Winds: from the NE (40 degrees) at 3 MPH (3 knots; 1.5 m/s)
Visibility: 1.24 miles (2.00 km)
Ceiling: at least 12,000 feet AGL
Clouds: clear skies
Weather: DU  (widespread dust)

METAR text: OEMA 192100Z 04003KT 2000 DU SKC 17/M04 Q1019 NOSIG
Conditions at: OEMA (MADINAH INTL ARP, SA) observed 2100 UTC 19 January 2019
Temperature: 17.0°C (63°F)
Dewpoint: -4.0°C (25°F) [RH = 23%]
Pressure (altimeter): 30.09 inches Hg (1019.0 mb)
Winds: from the NE (40 degrees) at 3 MPH (3 knots; 1.5 m/s)
Visibility: 1.24 miles (2.00 km)
Ceiling: at least 12,000 feet AGL
Clouds: clear skies
Weather: DU  (widespread dust)

METAR text: OEMA 192000Z 01003KT 2000 DU SKC 17/M04 Q1019 NOSIG
Conditions at: OEMA (MADINAH INTL ARP, SA) observed 2000 UTC 19 January 2019
Temperature: 17.0°C (63°F)
Dewpoint: -4.0°C (25°F) [RH = 23%]
Pressure (altimeter): 30.09 inches Hg (1019.0 mb)
Winds: from the N (10 degrees) at 3 MPH (3 knots; 1.5 m/s)
Visibility: 1.24 miles (2.00 km)
Ceiling: at least 12,000 feet AGL
Clouds: clear skies
Weather: DU  (widespread dust)

METAR text: OEMA 191900Z 36003KT 2000 DU NSC 18/M04 Q1019 NOSIG
Conditions at: OEMA (MADINAH INTL ARP, SA) observed 1900 UTC 19 January 2019
Temperature: 18.0°C (64°F)
Dewpoint: -4.0°C (25°F) [RH = 22%]
Pressure (altimeter): 30.09 inches Hg (1019.0 mb)
Winds: from the N (360 degrees) at 3 MPH (3 knots; 1.5 m/s)
Visibility: 1.24 miles (2.00 km)
Ceiling: at least 12,000 feet AGL
Clouds: sky clear below 12,000 feet AGL
Weather: DU  (widespread dust)

METAR text: OEMA 191800Z 01002KT 2000 DU SKC 19/M04 Q1018 NOSIG
Conditions at: OEMA (MADINAH INTL ARP, SA) observed 1800 UTC 19 January 2019
Temperature: 19.0°C (66°F)
Dewpoint: -4.0°C (25°F) [RH = 21%]
Pressure (altimeter): 30.06 inches Hg (1018.0 mb)
Winds: from the N (10 degrees) at 2 MPH (2 knots; 1.0 m/s)
Visibility: 1.24 miles (2.00 km)
Ceiling: at least 12,000 feet AGL
Clouds: clear skies
Weather: DU  (widespread dust)

METAR text: OEMA 191700Z 09002KT 2000 DU NSC 20/M04 Q1017 NOSIG
Conditions at: OEMA (MADINAH INTL ARP, SA) observed 1700 UTC 19 January 2019
Temperature: 20.0°C (68°F)
Dewpoint: -4.0°C (25°F) [RH = 19%]
Pressure (altimeter): 30.03 inches Hg (1017.0 mb)
Winds: from the E (90 degrees) at 2 MPH (2 knots; 1.0 m/s)
Visibility: 1.24 miles (2.00 km)
Ceiling: at least 12,000 feet AGL
Clouds: sky clear below 12,000 feet AGL
Weather: DU  (widespread dust)

METAR text: OEMA 191600Z 13002KT 2000 DU NSC 21/M06 Q1017 NOSIG
Conditions at: OEMA (MADINAH INTL ARP, SA) observed 1600 UTC 19 January 2019
Temperature: 21.0°C (70°F)
Dewpoint: -6.0°C (21°F) [RH = 16%]
Pressure (altimeter): 30.03 inches Hg (1017.0 mb)
Winds: from the SE (130 degrees) at 2 MPH (2 knots; 1.0 m/s)
Visibility: 1.24 miles (2.00 km)
Ceiling: at least 12,000 feet AGL
Clouds: sky clear below 12,000 feet AGL
Weather: DU  (widespread dust)

METAR text: OEMA 191500Z 16002KT 2000 DU SKC 22/M05 Q1016 NOSIG
Conditions at: OEMA (MADINAH INTL ARP, SA) observed 1500 UTC 19 January 2019
Temperature: 22.0°C (72°F)
Dewpoint: -5.0°C (23°F) [RH = 16%]
Pressure (altimeter): 30.00 inches Hg (1016.0 mb)
Winds: from the SSE (160 degrees) at 2 MPH (2 knots; 1.0 m/s)
Visibility: 1.24 miles (2.00 km)
Ceiling: at least 12,000 feet AGL
Clouds: clear skies
Weather: DU  (widespread dust)

METAR text: OEMA 191400Z 13002KT 2000 DU NSC 22/M04 Q1016 NOSIG
Conditions at: OEMA (MADINAH INTL ARP, SA) observed 1400 UTC 19 January 2019
Temperature: 22.0°C (72°F)
Dewpoint: -4.0°C (25°F) [RH = 17%]
Pressure (altimeter): 30.00 inches Hg (1016.0 mb)
Winds: from the SE (130 degrees) at 2 MPH (2 knots; 1.0 m/s)
Visibility: 1.24 miles (2.00 km)
Ceiling: at least 12,000 feet AGL
Clouds: sky clear below 12,000 feet AGL
Weather: DU  (widespread dust)

METAR text: OEMA 191300Z 14002KT 2000 DU NSC 22/M05 Q1016 NOSIG
Conditions at: OEMA (MADINAH INTL ARP, SA) observed 1300 UTC 19 January 2019
Temperature: 22.0°C (72°F)
Dewpoint: -5.0°C (23°F) [RH = 16%]
Pressure (altimeter): 30.00 inches Hg (1016.0 mb)
Winds: from the SE (140 degrees) at 2 MPH (2 knots; 1.0 m/s)
Visibility: 1.24 miles (2.00 km)
Ceiling: at least 12,000 feet AGL
Clouds: sky clear below 12,000 feet AGL
Weather: DU  (widespread dust)

METAR text: OEMA 191200Z 01002KT 2000 DU NSC 22/M06 Q1016 NOSIG
Conditions at: OEMA (MADINAH INTL ARP, SA) observed 1200 UTC 19 January 2019
Temperature: 22.0°C (72°F)
Dewpoint: -6.0°C (21°F) [RH = 15%]
Pressure (altimeter): 30.00 inches Hg (1016.0 mb)
Winds: from the N (10 degrees) at 2 MPH (2 knots; 1.0 m/s)
Visibility: 1.24 miles (2.00 km)
Ceiling: at least 12,000 feet AGL
Clouds: sky clear below 12,000 feet AGL
Weather: DU  (widespread dust)

Forecast for: OEMA (MADINAH INTL ARP, SA)
Text: TAF OEMA 202300Z 2100/2206 09008KT 6000 NSC
Forecast period: 0000 to 1000 UTC 21 January 2019
Forecast type: FROM: standard forecast or significant change
Winds: from the E (90 degrees) at 9 MPH (8 knots; 4.1 m/s)
Visibility: 4 miles (6 km)
Ceiling: unknown
Clouds: missing
Weather: no significant weather forecast for this period
Text: TEMPO 2100/2112 3500 DU FEW040
Forecast period: 0000 to 1200 UTC 21 January 2019
Forecast type: TEMPORARY: The following changes expected for less than half the time period
Visibility: 2.17 miles (3.49 km)
Ceiling: at least 12,000 feet AGL
Clouds: few clouds at 4000 feet AGL
Weather: DU  (widespread dust)
Text: BECMG 2110/2112 25012KT
Forecast period: 1000 UTC 21 January 2019 to 0600 UTC 22 January 2019
Forecast type: BECOMING: Conditions expected to become as follows by 1200 UTC 21 January 2019
Winds: from the WSW (250 degrees) at 14 MPH (12 knots; 6.2 m/s)
Visibility: 4 miles (6 km)
Ceiling: unknown
Clouds: missing
Weather: no significant weather forecast for this period